Big Piney, WY weather

Big Piney-Marbleton Airport (AMOS), Big Piney, WY: 10/30/2014 11:53
Visibility10 statute milesclear sky
View 7-Day Forecast
Area Summary
Sky/CloudsSky Clear
Weather [last 24 hours]None [rain began 14:16; rain ended 15:01 ]
Pressure30.4 in.Hg (1030 hPa)
3-hour Pressure Tendency0.005905 in.Hg (0.2 hPa) Steady or increasing, then decreasing; or decreasing then decreasing more rapidly
Dew Point27 F (-2.8 C)
Relative Humidity 47 %
Last 24-Hour Precip.Trace
Reading TimePrecipitation
6-hr ending 10/29@17:53Trace
Temperature46 F (7.8 C)red thermometer
Reading TimeMinimum to Maximum Temperature
6-hr ending 10/30@11:5318 F to 46 F (-7.8 C to 7.8 C)
6-hr ending 10/30@05:5318 F to 30.9 F (-7.8 C to -0.6 C)
6-hr ending 10/29@23:5325 F to 46.9 F (-3.9 C to 8.3 C)
6-hr ending 10/29@17:5344.1 F to 57 F (6.7 C to 13.9 C)
24-hr ending 10/30@00:5314 F to 57 F (-10 C to 13.9 C)
Wind0 MPH (0 KT) green arrow pointing at 0 degrees
Wind FromNorth (000 Degrees)
Rolling 24-hr Peak Wind31.1 MPH (27 KT) on 10/29@14:34
Rolling 24-hr Peak Wind FromNorth/Northwest (340 Degrees)
Twilight Begins07:24Sunshine Yesterday
Sunrise07:53N/A
Sunset18:15
Twilight Ends18:44
METARKBPI 301753Z AUTO 00000KT 10SM CLR 08/M03 A3040 RMK AO2 SLP284 T00781028 10078 21078 58002
Tags: